createdAt,value
2022-08-30T04:13:58.353Z,0.10
2022-08-30T04:15:00.678Z,0.10
2022-08-30T04:16:01.675Z,0.10
2022-08-30T04:17:02.869Z,0.10
2022-08-30T04:18:04.019Z,0.10
2022-08-30T04:19:06.139Z,0.10
2022-08-30T04:20:07.311Z,0.10
2022-08-30T04:21:13.579Z,0.10
2022-08-30T04:22:11.979Z,0.10
2022-08-30T04:23:13.088Z,0.10
2022-08-30T04:24:14.077Z,0.10
2022-08-30T04:25:15.905Z,0.10
2022-08-30T04:26:17.000Z,0.10
2022-08-30T04:27:17.963Z,0.10
2022-08-30T04:28:20.093Z,0.10
2022-08-30T04:29:22.221Z,0.10
2022-08-30T04:30:24.344Z,0.10
2022-08-30T04:31:25.663Z,0.10
2022-08-30T04:32:26.660Z,0.10
2022-08-30T04:33:28.832Z,0.10
2022-08-30T04:34:29.813Z,0.10
2022-08-30T04:35:31.941Z,0.10
2022-08-30T04:36:34.076Z,0.10
2022-08-30T04:37:36.425Z,0.10
2022-08-30T04:38:37.487Z,0.10
2022-08-30T04:39:38.469Z,0.10
2022-08-30T04:40:39.845Z,0.10
2022-08-30T04:41:41.355Z,0.20
2022-08-30T04:42:42.308Z,0.10
2022-08-30T04:43:49.576Z,0.10
2022-08-30T04:44:44.700Z,0.20
2022-08-30T04:45:46.825Z,0.10
2022-08-30T04:46:49.005Z,0.10
2022-08-30T04:47:51.177Z,0.10
2022-08-30T04:48:53.369Z,0.10
2022-08-30T04:49:55.523Z,0.10
2022-08-30T04:50:56.762Z,0.10
2022-08-30T04:51:58.884Z,0.10
2022-08-30T04:52:59.855Z,0.10
2022-08-30T04:54:00.804Z,0.10
2022-08-30T04:55:01.756Z,0.10
2022-08-30T04:56:02.713Z,0.10
2022-08-30T04:57:03.682Z,0.10
2022-08-30T04:58:04.631Z,0.10
2022-08-30T04:59:05.594Z,0.10
2022-08-30T05:00:06.823Z,0.10
2022-08-30T05:01:08.984Z,0.10
2022-08-30T05:02:13.205Z,0.10
2022-08-30T05:03:12.244Z,0.10
2022-08-30T05:04:13.251Z,0.10
2022-08-30T05:05:15.384Z,0.10
2022-08-30T05:06:17.719Z,0.10
2022-08-30T05:07:18.928Z,0.10
2022-08-30T05:08:24.586Z,0.10
2022-08-30T05:09:22.435Z,0.10
2022-08-30T05:10:30.627Z,0.10
2022-08-30T05:11:25.787Z,0.10
2022-08-30T05:12:27.909Z,0.10
2022-08-30T05:13:35.676Z,0.00
2022-08-30T05:14:38.532Z,0.10
2022-08-30T05:15:32.589Z,0.10
2022-08-30T05:16:33.963Z,0.10
2022-08-30T05:17:35.714Z,0.10
2022-08-30T05:18:37.077Z,0.10
2022-08-30T05:19:38.274Z,0.10
2022-08-30T05:20:40.392Z,0.10
2022-08-30T05:21:42.921Z,0.10
2022-08-30T05:22:44.079Z,0.10
2022-08-30T05:23:45.011Z,0.10
2022-08-30T05:24:47.357Z,0.10
2022-08-30T05:25:48.532Z,0.10
2022-08-30T05:26:50.663Z,0.10
2022-08-30T05:27:52.859Z,0.10
2022-08-30T05:28:54.985Z,0.10
2022-08-30T05:29:57.105Z,0.10
2022-08-30T05:30:58.124Z,0.10
2022-08-30T05:32:00.811Z,0.10
2022-08-30T05:33:01.765Z,0.10
2022-08-30T05:34:03.890Z,0.10
2022-08-30T05:35:06.044Z,0.10
2022-08-30T05:36:07.043Z,0.10
2022-08-30T05:37:09.138Z,0.10
2022-08-30T05:38:10.216Z,0.10
2022-08-30T05:39:11.446Z,0.10
2022-08-30T05:40:13.922Z,0.10
2022-08-30T05:41:15.357Z,0.10
2022-08-30T05:42:16.658Z,0.10
2022-08-30T05:43:17.850Z,0.10
2022-08-30T05:44:24.095Z,0.10
2022-08-30T05:45:21.246Z,0.10
2022-08-30T05:46:22.633Z,0.10
2022-08-30T05:47:23.681Z,0.10
2022-08-30T05:48:25.806Z,0.10
2022-08-30T05:49:27.958Z,0.10
2022-08-30T05:50:30.099Z,0.10
2022-08-30T05:51:32.223Z,0.10
2022-08-30T05:52:33.512Z,0.10
2022-08-30T05:53:35.920Z,0.10
2022-08-30T05:54:37.098Z,0.10
2022-08-30T05:55:39.227Z,0.10
2022-08-30T05:56:41.364Z,0.10
2022-08-30T05:57:43.498Z,0.10
2022-08-30T05:58:46.757Z,0.00
2022-08-30T05:59:46.569Z,0.10
2022-08-30T06:00:48.701Z,0.20
2022-08-30T06:01:50.810Z,0.20
2022-08-30T06:02:59.317Z,0.10
2022-08-30T06:04:03.868Z,0.60
2022-08-30T06:04:55.849Z,0.60
2022-08-30T06:05:57.344Z,0.50
2022-08-30T06:06:59.505Z,0.40
2022-08-30T06:08:01.698Z,0.40
2022-08-30T06:09:05.222Z,0.40
2022-08-30T06:10:05.887Z,0.30
2022-08-30T06:11:08.115Z,0.10
2022-08-30T06:12:09.111Z,0.20
2022-08-30T06:13:11.232Z,0.10
2022-08-30T06:14:12.914Z,0.10
2022-08-30T06:15:15.056Z,0.10
2022-08-30T06:16:17.302Z,0.10
2022-08-30T06:17:18.568Z,0.00
2022-08-30T06:18:28.459Z,0.10
2022-08-30T06:19:23.110Z,0.10
2022-08-30T06:20:24.053Z,0.00
2022-08-30T06:21:26.278Z,0.10
2022-08-30T06:22:28.497Z,0.10
2022-08-30T06:23:30.587Z,0.10
2022-08-30T06:24:54.017Z,0.00
2022-08-30T06:25:41.401Z,0.10
2022-08-30T06:26:36.104Z,0.10
2022-08-30T06:27:37.048Z,0.00
2022-08-30T06:28:39.174Z,0.00
2022-08-30T06:29:40.147Z,0.00
2022-08-30T06:30:41.223Z,0.00
2022-08-30T06:31:43.397Z,0.00
2022-08-30T06:32:45.764Z,0.00
2022-08-30T06:33:46.726Z,0.10
2022-08-30T06:34:48.253Z,0.00
2022-08-30T06:35:58.701Z,0.00
2022-08-30T06:36:52.593Z,0.00
2022-08-30T06:37:53.568Z,0.00
2022-08-30T06:38:55.879Z,0.00
2022-08-30T06:39:58.090Z,0.00
2022-08-30T06:40:59.149Z,0.00
2022-08-30T06:42:01.300Z,0.00
2022-08-30T06:43:02.389Z,0.00
2022-08-30T06:44:04.507Z,0.00
2022-08-30T06:45:10.674Z,0.00
2022-08-30T06:46:14.866Z,0.00
2022-08-30T06:47:10.206Z,0.00
2022-08-30T06:48:12.441Z,0.00
2022-08-30T06:49:14.842Z,0.00
2022-08-30T06:50:15.801Z,0.00
2022-08-30T06:51:17.937Z,0.00
2022-08-30T06:52:19.216Z,0.00
2022-08-30T06:53:20.155Z,0.00
2022-08-30T06:54:22.226Z,0.00
2022-08-30T06:55:24.354Z,0.00
2022-08-30T06:56:27.647Z,0.00
2022-08-30T06:57:27.537Z,0.00
2022-08-30T06:58:28.524Z,0.00
2022-08-30T06:59:30.648Z,0.00
2022-08-30T07:00:32.782Z,0.00
2022-08-30T07:01:34.989Z,0.00
2022-08-30T07:02:36.071Z,0.00
2022-08-30T07:03:38.196Z,0.10
2022-08-30T07:04:40.317Z,0.00
2022-08-30T07:05:42.455Z,0.00
2022-08-30T07:06:44.809Z,0.00
2022-08-30T07:07:45.831Z,0.00
2022-08-30T07:08:46.819Z,0.00
2022-08-30T07:09:49.104Z,0.00
2022-08-30T07:10:50.086Z,0.00
2022-08-30T07:11:52.207Z,0.00
2022-08-30T07:12:54.327Z,0.00
2022-08-30T07:13:56.458Z,0.00
2022-08-30T07:14:57.415Z,0.00
2022-08-30T07:15:58.508Z,0.00
2022-08-30T07:16:59.470Z,0.00
2022-08-30T07:18:01.658Z,0.00
2022-08-30T07:19:03.829Z,0.00
2022-08-30T07:20:04.830Z,0.00
2022-08-30T07:21:07.114Z,0.00
2022-08-30T07:22:08.139Z,0.00
2022-08-30T07:23:10.284Z,0.00
2022-08-30T07:24:12.405Z,0.00
2022-08-30T07:25:14.786Z,0.00
2022-08-30T07:26:15.788Z,0.00
2022-08-30T07:27:17.947Z,0.00
2022-08-30T07:28:20.076Z,0.00
2022-08-30T07:29:21.790Z,0.00
2022-08-30T07:30:23.872Z,0.00
2022-08-30T07:31:26.007Z,0.00
2022-08-30T07:32:28.139Z,0.00
2022-08-30T07:33:29.771Z,0.00
2022-08-30T07:34:31.931Z,0.00
2022-08-30T07:35:34.170Z,0.00
2022-08-30T07:36:36.298Z,0.00
2022-08-30T07:37:38.421Z,0.00
2022-08-30T07:38:40.561Z,0.00
2022-08-30T07:39:47.595Z,0.00
2022-08-30T07:40:44.049Z,0.00
2022-08-30T07:41:45.108Z,0.00
2022-08-30T07:42:47.248Z,0.00
2022-08-30T07:43:49.369Z,0.00
2022-08-30T07:44:52.702Z,0.00
2022-08-30T07:45:51.718Z,0.00
2022-08-30T07:46:53.890Z,0.00
2022-08-30T07:47:55.998Z,0.00
2022-08-30T07:49:04.640Z,0.00
2022-08-30T07:50:00.030Z,0.00
2022-08-30T07:51:08.226Z,0.00
2022-08-30T07:52:03.341Z,0.00
2022-08-30T07:53:07.931Z,0.00
2022-08-30T07:54:06.693Z,0.00
2022-08-30T07:55:08.084Z,0.00
2022-08-30T07:56:10.203Z,0.00
2022-08-30T07:57:12.326Z,0.00
2022-08-30T07:58:13.424Z,0.00
2022-08-30T07:59:15.585Z,0.00
2022-08-30T08:00:16.545Z,0.10
2022-08-30T08:01:18.164Z,0.00
2022-08-30T08:02:19.310Z,0.00
2022-08-30T08:03:27.581Z,0.00
2022-08-30T08:04:22.707Z,0.00
2022-08-30T08:05:25.075Z,0.00
2022-08-30T08:06:26.069Z,0.00
2022-08-30T08:07:28.225Z,0.00
2022-08-30T08:08:30.353Z,0.00
2022-08-30T08:09:31.541Z,0.00
2022-08-30T08:10:32.568Z,0.00
2022-08-30T08:11:39.713Z,0.10
2022-08-30T08:12:34.902Z,0.10
2022-08-30T08:13:45.209Z,0.00
2022-08-30T08:14:38.154Z,0.00
2022-08-30T08:15:39.229Z,0.10
2022-08-30T08:16:41.350Z,0.00
2022-08-30T08:17:43.790Z,0.10
2022-08-30T08:18:44.921Z,0.10
2022-08-30T08:19:45.885Z,0.10
2022-08-30T08:20:48.039Z,0.10
2022-08-30T08:21:59.354Z,0.10
2022-08-30T08:22:52.448Z,0.10
2022-08-30T08:23:53.435Z,0.10
2022-08-30T08:25:01.613Z,0.10
2022-08-30T08:25:56.729Z,0.10
2022-08-30T08:26:57.896Z,0.10
2022-08-30T08:28:00.151Z,0.10
2022-08-30T08:29:01.137Z,0.20
2022-08-30T08:30:03.269Z,0.10
2022-08-30T08:31:05.439Z,0.10
2022-08-30T08:32:06.555Z,0.20
2022-08-30T08:33:08.823Z,0.20
2022-08-30T08:34:09.773Z,0.10
2022-08-30T08:35:11.944Z,0.20
2022-08-30T08:36:14.042Z,0.20
2022-08-30T08:37:16.181Z,0.10
2022-08-30T08:38:18.328Z,0.10
2022-08-30T08:39:19.457Z,0.20
2022-08-30T08:40:21.757Z,0.20
2022-08-30T08:41:22.873Z,0.20
2022-08-30T08:42:23.826Z,0.20
2022-08-30T08:43:25.955Z,0.20
2022-08-30T08:44:31.242Z,0.20
2022-08-30T08:45:29.501Z,0.20
2022-08-30T08:46:29.541Z,0.30
2022-08-30T08:47:31.703Z,0.20
2022-08-30T08:48:51.948Z,0.30
2022-08-30T08:49:35.913Z,0.20
2022-08-30T08:50:37.086Z,0.30
2022-08-30T08:51:38.039Z,0.30
2022-08-30T08:52:39.163Z,0.30
2022-08-30T08:53:47.865Z,0.30
2022-08-30T08:54:42.958Z,0.30
2022-08-30T08:55:43.899Z,0.30
2022-08-30T08:56:44.905Z,0.30
2022-08-30T08:57:47.084Z,0.30
2022-08-30T08:58:49.213Z,0.30
2022-08-30T08:59:51.356Z,0.30
2022-08-30T09:00:53.488Z,0.30
2022-08-30T09:01:58.114Z,0.30
2022-08-30T09:02:56.948Z,0.30
2022-08-30T09:03:59.228Z,0.40
2022-08-30T09:05:00.234Z,0.30
2022-08-30T09:06:01.275Z,0.30
2022-08-30T09:07:03.398Z,0.30
2022-08-30T09:08:09.712Z,0.40
2022-08-30T09:09:07.622Z,0.40
2022-08-30T09:10:09.751Z,0.40
2022-08-30T09:11:11.889Z,0.40
2022-08-30T09:12:14.018Z,0.40
2022-08-30T09:13:16.493Z,0.40
2022-08-30T09:14:17.780Z,0.50
2022-08-30T09:15:19.909Z,0.40
2022-08-30T09:16:22.416Z,0.40
2022-08-30T09:17:23.550Z,0.50
2022-08-30T09:18:24.565Z,0.40
2022-08-30T09:19:25.530Z,0.40
2022-08-30T09:20:27.670Z,0.50
2022-08-30T09:21:29.824Z,0.50
2022-08-30T09:22:31.030Z,0.50
2022-08-30T09:23:33.162Z,0.50
2022-08-30T09:24:34.126Z,0.60
2022-08-30T09:25:37.688Z,0.60
2022-08-30T09:26:36.519Z,0.70
2022-08-30T09:27:38.607Z,0.80
2022-08-30T09:28:40.735Z,0.60
2022-08-30T09:29:42.071Z,0.60
2022-08-30T09:30:43.538Z,0.50
2022-08-30T09:31:44.553Z,0.50
2022-08-30T09:32:46.667Z,0.50
2022-08-30T09:33:47.881Z,0.50
2022-08-30T09:34:48.857Z,0.50
2022-08-30T09:35:49.813Z,0.50
2022-08-30T09:36:51.949Z,0.50
2022-08-30T09:37:54.069Z,0.60
2022-08-30T09:38:56.318Z,0.70
2022-08-30T09:39:57.369Z,0.70
2022-08-30T09:40:59.499Z,0.40
2022-08-30T09:42:01.727Z,0.30
2022-08-30T09:43:03.961Z,0.20
2022-08-30T09:44:04.931Z,0.20
2022-08-30T09:45:07.281Z,0.10
2022-08-30T09:46:08.378Z,0.10
2022-08-30T09:47:09.455Z,0.10
2022-08-30T09:48:11.581Z,0.10
2022-08-30T09:49:13.823Z,0.10
2022-08-30T09:50:14.906Z,0.10
2022-08-30T09:51:17.257Z,0.20
2022-08-30T09:52:19.458Z,0.20
2022-08-30T09:53:23.619Z,0.20
2022-08-30T09:54:23.650Z,0.20
2022-08-30T09:55:25.320Z,0.20
2022-08-30T09:56:27.456Z,0.20
2022-08-30T09:57:34.146Z,0.20
2022-08-30T09:58:31.068Z,0.30
2022-08-30T09:59:30.977Z,0.20
2022-08-30T10:00:39.232Z,0.10
2022-08-30T10:01:34.521Z,0.10
2022-08-30T10:02:35.578Z,0.00
2022-08-30T10:03:40.453Z,0.00
2022-08-30T10:04:39.615Z,0.00
2022-08-30T10:05:40.772Z,0.00
2022-08-30T10:06:42.189Z,0.00
2022-08-30T10:07:43.216Z,0.00
2022-08-30T10:08:45.453Z,0.00
2022-08-30T10:09:47.667Z,0.00
2022-08-30T10:10:49.204Z,0.00
2022-08-30T10:11:50.591Z,0.00
2022-08-30T10:12:52.795Z,0.00
2022-08-30T10:13:53.837Z,0.00
2022-08-30T10:14:54.936Z,0.00
2022-08-30T10:15:56.360Z,0.00
2022-08-30T10:16:57.658Z,0.00
2022-08-30T10:17:58.913Z,0.00
2022-08-30T10:19:00.299Z,0.00
2022-08-30T10:20:02.641Z,0.00
2022-08-30T10:21:03.696Z,0.00
2022-08-30T10:22:11.514Z,0.00
2022-08-30T10:23:06.677Z,0.00
2022-08-30T10:24:07.814Z,0.00
2022-08-30T10:25:09.937Z,0.00
2022-08-30T10:26:11.180Z,0.00
2022-08-30T10:28:14.100Z,0.00
2022-08-30T10:29:15.058Z,0.00
2022-08-30T10:30:23.182Z,0.00
2022-08-30T10:31:18.554Z,0.00
2022-08-30T10:32:19.827Z,0.00
2022-08-30T10:33:21.981Z,0.10
2022-08-30T10:34:23.056Z,0.10
2022-08-30T10:35:25.147Z,0.00
2022-08-30T10:36:26.160Z,0.10
2022-08-30T10:37:28.259Z,0.10
2022-08-30T10:38:30.378Z,0.10
2022-08-30T10:39:32.502Z,0.10
2022-08-30T10:40:33.707Z,0.10
2022-08-30T10:41:35.889Z,0.10
2022-08-30T10:42:40.077Z,0.10
2022-08-30T10:43:39.207Z,0.10
2022-08-30T10:44:41.433Z,0.10
2022-08-30T10:45:43.569Z,0.20
2022-08-30T10:46:45.868Z,0.20
2022-08-30T10:47:46.828Z,0.20
2022-08-30T10:48:49.024Z,0.20
2022-08-30T10:49:50.535Z,0.30
2022-08-30T10:50:52.604Z,0.30
2022-08-30T10:51:54.724Z,0.30
2022-08-30T10:52:56.247Z,0.30
2022-08-30T10:53:58.369Z,0.40
2022-08-30T10:55:00.666Z,0.40
2022-08-30T10:56:01.686Z,0.40
2022-08-30T10:57:03.835Z,0.40
2022-08-30T10:58:06.007Z,0.40
2022-08-30T10:59:07.258Z,0.40
2022-08-30T11:00:08.319Z,0.40
2022-08-30T11:01:10.516Z,0.40
2022-08-30T11:02:12.512Z,0.50
2022-08-30T11:03:14.239Z,0.50
2022-08-30T11:04:16.489Z,0.50
2022-08-30T11:05:17.537Z,0.50
2022-08-30T11:06:18.618Z,0.60
2022-08-30T11:07:20.910Z,0.60
2022-08-30T11:08:23.113Z,0.50
2022-08-30T11:09:25.246Z,0.70
2022-08-30T11:10:26.467Z,0.60
2022-08-30T11:11:27.554Z,0.70
2022-08-30T11:12:29.684Z,0.80
2022-08-30T11:13:30.668Z,0.70
2022-08-30T11:14:31.620Z,0.80
2022-08-30T11:15:33.712Z,0.90
2022-08-30T11:16:35.185Z,1.00
2022-08-30T11:17:37.341Z,0.90
2022-08-30T11:18:38.770Z,1.00
2022-08-30T11:19:40.941Z,1.10
2022-08-30T11:20:43.024Z,1.10
2022-08-30T11:21:45.142Z,1.39
2022-08-30T11:22:47.337Z,1.39
2022-08-30T11:23:48.261Z,1.39
2022-08-30T11:24:50.490Z,1.39
2022-08-30T11:25:56.803Z,1.70
2022-08-30T11:26:52.658Z,1.60
2022-08-30T11:27:54.862Z,1.70
2022-08-30T11:28:56.974Z,1.39
2022-08-30T11:29:59.252Z,0.70
2022-08-30T11:31:00.210Z,0.40
2022-08-30T11:32:02.539Z,0.30
2022-08-30T11:33:07.980Z,0.20
2022-08-30T11:34:05.347Z,0.20
2022-08-30T11:35:07.477Z,0.10
2022-08-30T11:36:08.741Z,0.10
2022-08-30T11:37:10.882Z,0.00
2022-08-30T11:38:13.077Z,0.00
2022-08-30T11:39:14.468Z,0.00
2022-08-30T11:40:17.373Z,0.00
2022-08-30T11:41:17.639Z,0.00
2022-08-30T11:42:19.920Z,0.00
2022-08-30T11:43:20.891Z,0.00
2022-08-30T11:44:22.789Z,0.00
2022-08-30T11:45:25.239Z,0.00
2022-08-30T11:46:25.709Z,0.00
2022-08-30T11:47:26.772Z,0.00
2022-08-30T11:48:34.713Z,0.00
2022-08-30T11:49:30.060Z,0.00
2022-08-30T11:50:31.094Z,0.00
2022-08-30T11:51:32.183Z,0.00
2022-08-30T11:52:34.406Z,0.00
2022-08-30T11:53:36.392Z,0.00
2022-08-30T11:54:38.681Z,0.00
2022-08-30T11:55:40.917Z,0.00
2022-08-30T11:56:48.027Z,0.00
2022-08-30T11:57:43.524Z,0.00
2022-08-30T11:58:50.990Z,0.00
2022-08-30T11:59:46.151Z,0.00
2022-08-30T12:00:51.423Z,0.00
2022-08-30T12:01:50.537Z,0.00
2022-08-30T12:02:51.917Z,0.00
2022-08-30T12:03:51.776Z,0.00
2022-08-30T12:04:53.928Z,0.00
2022-08-30T12:05:57.291Z,0.00
2022-08-30T12:06:57.961Z,0.00
2022-08-30T12:07:59.955Z,0.00
2022-08-30T12:09:02.980Z,0.00
2022-08-30T12:10:02.403Z,0.00
2022-08-30T12:11:03.392Z,0.00
2022-08-30T12:12:04.735Z,0.00
2022-08-30T12:13:06.334Z,0.00
2022-08-30T12:14:09.385Z,0.00
2022-08-30T12:15:09.556Z,0.00
2022-08-30T12:16:10.712Z,0.00
2022-08-30T12:17:11.698Z,0.00
2022-08-30T12:18:15.746Z,0.00
2022-08-30T12:19:15.749Z,0.00
2022-08-30T12:20:18.044Z,0.00
2022-08-30T12:21:20.163Z,0.00
2022-08-30T12:22:21.419Z,0.00
2022-08-30T12:23:23.260Z,0.00
2022-08-30T12:24:25.484Z,0.00
2022-08-30T12:25:26.691Z,0.00
2022-08-30T12:26:28.820Z,0.00
2022-08-30T12:27:32.659Z,0.00
2022-08-30T12:28:32.971Z,0.00
2022-08-30T12:29:34.186Z,0.00
2022-08-30T12:30:36.339Z,0.00
2022-08-30T12:31:38.708Z,0.00
2022-08-30T12:32:46.231Z,0.00
2022-08-30T12:33:41.722Z,0.00
2022-08-30T12:34:42.855Z,0.00
2022-08-30T12:35:43.850Z,0.00
2022-08-30T12:36:45.054Z,0.00
2022-08-30T12:38:48.105Z,0.00
2022-08-30T12:39:53.753Z,0.00
2022-08-30T12:40:51.511Z,0.00
2022-08-30T12:41:53.648Z,0.00
2022-08-30T12:42:54.658Z,0.00
2022-08-30T12:43:56.788Z,0.00
2022-08-30T12:44:59.007Z,0.00
2022-08-30T12:46:01.020Z,0.00
2022-08-30T12:47:03.037Z,0.00
2022-08-30T12:48:03.579Z,0.00
2022-08-30T12:49:04.551Z,0.00
2022-08-30T12:50:06.061Z,0.00
2022-08-30T12:51:14.376Z,0.00
2022-08-30T12:52:08.543Z,0.00
2022-08-30T12:53:13.911Z,0.00
2022-08-30T12:54:12.986Z,0.00
2022-08-30T12:55:17.593Z,0.00
2022-08-30T12:56:18.997Z,0.00
2022-08-30T12:57:34.559Z,0.00
2022-08-30T12:58:19.459Z,0.00
2022-08-30T12:59:20.462Z,0.00
2022-08-30T13:00:22.600Z,0.00
2022-08-30T13:01:23.974Z,0.00
2022-08-30T13:02:25.098Z,0.00
2022-08-30T13:03:26.405Z,0.00
2022-08-30T13:04:27.708Z,0.00
2022-08-30T13:05:29.862Z,0.00
2022-08-30T13:06:37.417Z,0.00
2022-08-30T13:07:32.850Z,0.00
2022-08-30T13:08:33.856Z,0.00
2022-08-30T13:09:35.054Z,0.00
2022-08-30T13:10:37.184Z,0.00
2022-08-30T13:11:44.439Z,0.00
2022-08-30T13:12:39.557Z,0.00
2022-08-30T13:13:40.811Z,0.10
2022-08-30T13:14:43.670Z,0.00
2022-08-30T13:15:44.743Z,0.00
2022-08-30T13:16:46.089Z,0.00
2022-08-30T13:17:47.323Z,0.00
2022-08-30T13:18:49.488Z,0.00
2022-08-30T13:19:50.968Z,0.00
2022-08-30T13:20:58.071Z,0.00
2022-08-30T13:21:53.192Z,0.00
2022-08-30T13:22:55.332Z,0.00
2022-08-30T13:23:56.591Z,0.00
2022-08-30T13:24:57.760Z,0.00
2022-08-30T13:25:59.838Z,0.00
2022-08-30T13:27:01.159Z,0.00
2022-08-30T13:28:08.256Z,0.00
2022-08-30T13:29:04.045Z,0.00
2022-08-30T13:30:06.211Z,0.00
2022-08-30T13:31:08.004Z,0.00
2022-08-30T13:32:09.084Z,0.00
2022-08-30T13:33:11.308Z,0.00
2022-08-30T13:34:12.519Z,0.00
2022-08-30T13:35:13.698Z,0.00
2022-08-30T13:36:14.747Z,0.00
2022-08-30T13:38:19.312Z,0.00
2022-08-30T13:39:19.450Z,0.00
2022-08-30T13:40:20.660Z,0.00
2022-08-30T13:41:21.940Z,0.00
2022-08-30T13:42:38.541Z,0.00
2022-08-30T13:43:25.476Z,0.00
2022-08-30T13:44:26.518Z,0.00
2022-08-30T13:45:43.198Z,0.00
2022-08-30T13:46:35.895Z,0.00
2022-08-30T13:47:34.697Z,0.00
2022-08-30T13:48:31.335Z,0.00
2022-08-30T13:49:48.877Z,0.00
2022-08-30T13:50:35.757Z,0.10
2022-08-30T13:51:49.985Z,0.00
2022-08-30T13:52:39.143Z,0.00
2022-08-30T13:53:54.016Z,0.10
2022-08-30T13:54:42.553Z,0.00
2022-08-30T13:55:42.835Z,0.00
2022-08-30T13:56:44.296Z,0.00
2022-08-30T13:58:00.666Z,0.00
2022-08-30T13:58:47.532Z,0.00
2022-08-30T13:59:49.737Z,0.00
2022-08-30T14:00:50.153Z,0.00
2022-08-30T14:02:54.845Z,0.00
2022-08-30T14:04:58.631Z,0.00
2022-08-30T14:06:15.874Z,0.00
2022-08-30T14:07:19.939Z,0.00
2022-08-30T14:08:00.322Z,0.00
2022-08-30T14:09:04.399Z,0.00
2022-08-30T14:11:04.938Z,0.00
2022-08-30T14:12:07.078Z,0.00
2022-08-30T14:13:08.930Z,0.00
2022-08-30T14:14:28.592Z,0.00
2022-08-30T14:15:12.385Z,0.00
2022-08-30T14:16:29.175Z,0.00
2022-08-30T14:17:15.882Z,0.00
2022-08-30T14:18:17.961Z,0.00
2022-08-30T14:19:18.086Z,0.00
2022-08-30T14:20:20.263Z,0.00
2022-08-30T14:21:27.335Z,0.00
2022-08-30T14:22:22.895Z,0.00
2022-08-30T14:23:23.824Z,0.00
2022-08-30T14:24:32.056Z,0.00
2022-08-30T14:25:27.368Z,0.00
2022-08-30T14:26:32.766Z,0.00
2022-08-30T14:27:29.801Z,0.00
2022-08-30T14:28:31.249Z,0.00
2022-08-30T14:29:32.496Z,0.00
2022-08-30T14:30:33.481Z,0.00
2022-08-30T14:31:35.098Z,0.00
2022-08-30T14:32:42.126Z,0.00
2022-08-30T14:33:37.612Z,0.00
2022-08-30T14:34:38.583Z,0.00
2022-08-30T14:35:46.188Z,0.00
2022-08-30T14:36:41.281Z,0.00
2022-08-30T14:37:42.886Z,0.00
2022-08-30T14:38:44.107Z,0.00
2022-08-30T14:39:45.558Z,0.00
2022-08-30T14:40:46.798Z,0.00
2022-08-30T14:41:48.557Z,0.00
2022-08-30T14:42:50.682Z,0.00
2022-08-30T14:43:52.137Z,0.00
2022-08-30T14:44:56.664Z,0.00
2022-08-30T14:45:55.662Z,0.00
2022-08-30T14:46:56.925Z,0.00
2022-08-30T14:47:57.954Z,0.00
2022-08-30T14:48:59.760Z,0.00
2022-08-30T14:50:01.894Z,0.00
2022-08-30T14:51:04.032Z,0.00
2022-08-30T14:52:06.162Z,0.00
2022-08-30T14:53:07.513Z,0.00
2022-08-30T14:54:08.743Z,0.00
2022-08-30T14:55:09.842Z,0.00
2022-08-30T14:56:11.241Z,0.00
2022-08-30T14:57:13.450Z,0.00
2022-08-30T14:58:15.748Z,0.00
2022-08-30T14:59:16.859Z,0.00
2022-08-30T15:00:18.067Z,0.00
2022-08-30T15:01:25.863Z,0.00
2022-08-30T15:02:24.103Z,0.00
2022-08-30T15:03:23.233Z,0.10
2022-08-30T15:04:23.977Z,0.00
2022-08-30T15:05:25.128Z,0.10
2022-08-30T15:06:27.080Z,0.00
2022-08-30T15:07:29.165Z,0.00
2022-08-30T15:08:30.311Z,0.00
2022-08-30T15:09:32.422Z,0.00
2022-08-30T15:10:39.657Z,0.10
2022-08-30T15:11:35.721Z,0.00
2022-08-30T15:12:37.862Z,0.00
2022-08-30T15:13:39.353Z,0.00
2022-08-30T15:14:40.624Z,0.00
2022-08-30T15:15:42.768Z,0.00
2022-08-30T15:16:44.941Z,0.00
2022-08-30T15:17:46.667Z,0.00
2022-08-30T15:18:48.836Z,0.10
2022-08-30T15:19:50.964Z,0.00
2022-08-30T15:20:52.156Z,0.00
2022-08-30T15:22:00.333Z,0.00
2022-08-30T15:22:55.455Z,0.00
2022-08-30T15:23:57.652Z,0.00
2022-08-30T15:24:58.573Z,0.00
2022-08-30T15:26:00.700Z,0.00
2022-08-30T15:27:02.857Z,0.10
2022-08-30T15:28:05.075Z,0.00
2022-08-30T15:29:06.039Z,0.00
2022-08-30T15:30:07.462Z,0.00
2022-08-30T15:31:09.591Z,0.00
2022-08-30T15:32:10.710Z,0.00
2022-08-30T15:33:12.804Z,0.00
2022-08-30T15:34:21.229Z,0.00
2022-08-30T15:35:16.603Z,0.00
2022-08-30T15:36:18.724Z,0.00
2022-08-30T15:37:20.934Z,0.00
2022-08-30T15:38:23.128Z,0.00
2022-08-30T15:39:25.359Z,0.00
2022-08-30T15:40:26.542Z,0.00
2022-08-30T15:41:27.760Z,0.00
2022-08-30T15:42:35.903Z,0.00
2022-08-30T15:43:31.028Z,0.00
2022-08-30T15:44:32.392Z,0.00
2022-08-30T15:45:34.307Z,0.00
2022-08-30T15:46:35.524Z,0.00
2022-08-30T15:47:37.667Z,0.00
2022-08-30T15:48:45.347Z,0.00
2022-08-30T15:49:42.072Z,0.10
2022-08-30T15:50:43.061Z,0.00
2022-08-30T15:51:46.033Z,0.00
2022-08-30T15:52:45.991Z,0.00
2022-08-30T15:53:48.323Z,0.00
2022-08-30T15:54:49.820Z,0.00
2022-08-30T15:55:50.993Z,0.00
2022-08-30T15:56:52.015Z,0.00
2022-08-30T15:57:54.140Z,0.00
2022-08-30T15:58:55.509Z,0.00
2022-08-30T15:59:56.469Z,0.00
2022-08-30T16:00:58.703Z,0.10
2022-08-30T16:02:00.385Z,0.00
2022-08-30T16:03:01.401Z,0.00
2022-08-30T16:04:02.371Z,0.00
2022-08-30T16:05:03.345Z,0.00
2022-08-30T16:06:04.517Z,0.00
2022-08-30T16:07:05.688Z,0.00
2022-08-30T16:08:12.855Z,0.00
2022-08-30T16:09:08.749Z,0.00
2022-08-30T16:10:10.920Z,0.00
2022-08-30T16:11:13.041Z,0.00
2022-08-30T16:12:22.459Z,0.00
2022-08-30T16:13:17.616Z,0.00
2022-08-30T16:14:17.593Z,0.10
2022-08-30T16:15:19.363Z,0.00
2022-08-30T16:16:20.952Z,0.00
2022-08-30T16:17:21.961Z,0.00
2022-08-30T16:18:23.019Z,0.00
2022-08-30T16:19:24.431Z,0.00
2022-08-30T16:20:25.635Z,0.00
2022-08-30T16:21:27.815Z,0.00
2022-08-30T16:22:29.033Z,0.00
2022-08-30T16:23:33.542Z,0.00
2022-08-30T16:24:32.367Z,0.00
2022-08-30T16:25:40.064Z,0.00
2022-08-30T16:26:36.553Z,0.00
2022-08-30T16:27:37.536Z,0.00
2022-08-30T16:28:39.767Z,0.00
2022-08-30T16:29:41.899Z,0.00
2022-08-30T16:30:50.268Z,0.00
2022-08-30T16:31:47.430Z,0.00
2022-08-30T16:32:48.537Z,0.00
2022-08-30T16:33:52.378Z,0.00
2022-08-30T16:34:52.788Z,0.00
2022-08-30T16:35:54.403Z,0.00
2022-08-30T16:36:57.636Z,0.00
2022-08-30T16:37:57.444Z,0.00
2022-08-30T16:38:59.805Z,0.00
2022-08-30T16:40:01.577Z,0.00
2022-08-30T16:41:02.627Z,0.00
2022-08-30T16:42:11.077Z,0.10
2022-08-30T16:43:06.553Z,0.00
2022-08-30T16:44:08.469Z,0.10
2022-08-30T16:45:10.493Z,0.00
2022-08-30T16:46:11.167Z,0.00
2022-08-30T16:47:14.253Z,0.00
2022-08-30T16:48:14.317Z,0.00
2022-08-30T16:49:15.517Z,0.00
2022-08-30T16:50:17.085Z,0.00
2022-08-30T16:51:18.911Z,0.10
2022-08-30T16:52:21.037Z,0.00
2022-08-30T16:53:22.352Z,0.00
2022-08-30T16:54:24.474Z,0.00
2022-08-30T16:55:25.887Z,0.00
2022-08-30T16:56:28.018Z,0.00
2022-08-30T16:57:31.338Z,0.00
2022-08-30T16:58:32.375Z,0.00
2022-08-30T16:59:34.654Z,0.00
2022-08-30T17:00:36.104Z,0.00
2022-08-30T17:01:37.508Z,0.00
2022-08-30T17:02:38.835Z,0.00
2022-08-30T17:03:40.027Z,0.10
2022-08-30T17:04:41.501Z,0.00
2022-08-30T17:05:42.438Z,0.00
2022-08-30T17:06:44.706Z,0.00
2022-08-30T17:07:46.645Z,0.00
2022-08-30T17:08:55.869Z,0.00
2022-08-30T17:09:49.094Z,0.00
2022-08-30T17:10:51.231Z,0.00
2022-08-30T17:11:52.870Z,0.00
2022-08-30T17:13:00.013Z,0.00
2022-08-30T17:13:55.135Z,0.00
2022-08-30T17:14:56.185Z,0.00
2022-08-30T17:15:57.502Z,0.00
2022-08-30T17:17:00.603Z,0.00
2022-08-30T17:18:00.644Z,0.10
2022-08-30T17:19:08.917Z,0.00
2022-08-30T17:20:04.501Z,0.00
2022-08-30T17:21:06.641Z,0.10
2022-08-30T17:22:08.629Z,0.00
2022-08-30T17:23:09.723Z,0.00
2022-08-30T17:24:10.677Z,0.00
2022-08-30T17:25:11.636Z,0.00
2022-08-30T17:26:12.669Z,0.00
2022-08-30T17:27:14.816Z,0.00
2022-08-30T17:28:16.046Z,0.10
2022-08-30T17:29:17.153Z,0.10
2022-08-30T17:30:19.309Z,0.00
2022-08-30T17:31:21.465Z,0.10
2022-08-30T17:32:22.471Z,0.00
2022-08-30T17:33:24.494Z,0.10
2022-08-30T17:34:26.481Z,0.00
2022-08-30T17:35:33.667Z,0.00
2022-08-30T17:36:28.792Z,0.00
2022-08-30T17:37:30.918Z,0.00
2022-08-30T17:38:33.112Z,0.10
2022-08-30T17:39:34.930Z,0.10
2022-08-30T17:40:37.029Z,0.00
2022-08-30T17:41:38.840Z,0.00
2022-08-30T17:42:40.984Z,0.10
2022-08-30T17:43:42.701Z,0.00
2022-08-30T17:44:43.756Z,0.00
2022-08-30T17:45:44.939Z,0.10
2022-08-30T17:46:47.226Z,0.10
2022-08-30T17:47:48.256Z,0.00
2022-08-30T17:48:57.857Z,0.10
2022-08-30T17:49:52.686Z,0.00
2022-08-30T17:50:53.023Z,0.00
2022-08-30T17:52:56.287Z,0.00
2022-08-30T17:53:57.599Z,0.00
2022-08-30T17:54:58.602Z,0.00
2022-08-30T17:56:00.697Z,0.00
2022-08-30T17:57:06.370Z,0.00
2022-08-30T17:58:05.361Z,0.00
2022-08-30T17:59:06.366Z,0.10
2022-08-30T18:00:08.527Z,0.00
2022-08-30T18:01:11.737Z,0.10